sensor_id;sensor_type;location;lat;lon;timestamp;P1;durP1;ratioP1;P2;durP2;ratioP2
5587;SDS011;2816;49.778;9.986;2023-04-24T00:02:06;2.50;;;1.20;;
5587;SDS011;2816;49.778;9.986;2023-04-24T00:04:37;1.60;;;1.30;;
5587;SDS011;2816;49.778;9.986;2023-04-24T00:07:05;2.60;;;1.10;;
5587;SDS011;2816;49.778;9.986;2023-04-24T00:09:32;1.30;;;1.20;;
5587;SDS011;2816;49.778;9.986;2023-04-24T00:11:59;1.57;;;1.27;;
5587;SDS011;2816;49.778;9.986;2023-04-24T00:14:27;1.33;;;1.23;;
5587;SDS011;2816;49.778;9.986;2023-04-24T00:16:54;1.80;;;1.20;;
5587;SDS011;2816;49.778;9.986;2023-04-24T00:19:21;1.80;;;1.30;;
5587;SDS011;2816;49.778;9.986;2023-04-24T00:21:49;7.47;;;1.40;;
5587;SDS011;2816;49.778;9.986;2023-04-24T00:24:17;2.50;;;1.30;;
5587;SDS011;2816;49.778;9.986;2023-04-24T00:26:43;9.77;;;1.30;;
5587;SDS011;2816;49.778;9.986;2023-04-24T00:29:10;1.27;;;1.17;;
5587;SDS011;2816;49.778;9.986;2023-04-24T00:31:37;3.10;;;0.97;;
5587;SDS011;2816;49.778;9.986;2023-04-24T00:34:04;1.87;;;1.27;;
5587;SDS011;2816;49.778;9.986;2023-04-24T00:36:31;1.47;;;1.10;;
5587;SDS011;2816;49.778;9.986;2023-04-24T00:38:59;3.60;;;1.30;;
5587;SDS011;2816;49.778;9.986;2023-04-24T00:41:27;1.53;;;1.13;;
5587;SDS011;2816;49.778;9.986;2023-04-24T00:43:54;1.80;;;1.23;;
5587;SDS011;2816;49.778;9.986;2023-04-24T00:46:21;1.90;;;1.47;;
5587;SDS011;2816;49.778;9.986;2023-04-24T00:48:48;1.47;;;1.00;;
5587;SDS011;2816;49.778;9.986;2023-04-24T00:51:16;1.87;;;1.30;;
5587;SDS011;2816;49.778;9.986;2023-04-24T00:53:43;1.87;;;1.20;;
5587;SDS011;2816;49.778;9.986;2023-04-24T00:56:11;1.10;;;1.00;;
5587;SDS011;2816;49.778;9.986;2023-04-24T00:58:38;1.70;;;1.30;;
5587;SDS011;2816;49.778;9.986;2023-04-24T01:01:06;3.37;;;1.30;;
5587;SDS011;2816;49.778;9.986;2023-04-24T01:03:33;2.10;;;1.10;;
5587;SDS011;2816;49.778;9.986;2023-04-24T01:06:02;4.97;;;1.00;;
5587;SDS011;2816;49.778;9.986;2023-04-24T01:08:31;1.30;;;1.20;;
5587;SDS011;2816;49.778;9.986;2023-04-24T01:10:58;1.00;;;0.93;;
5587;SDS011;2816;49.778;9.986;2023-04-24T01:13:30;2.43;;;1.27;;
5587;SDS011;2816;49.778;9.986;2023-04-24T01:15:58;1.73;;;1.07;;
5587;SDS011;2816;49.778;9.986;2023-04-24T01:18:25;1.37;;;1.23;;
5587;SDS011;2816;49.778;9.986;2023-04-24T01:20:53;1.27;;;1.17;;
5587;SDS011;2816;49.778;9.986;2023-04-24T01:23:24;2.90;;;1.30;;
5587;SDS011;2816;49.778;9.986;2023-04-24T01:25:51;1.67;;;1.00;;
5587;SDS011;2816;49.778;9.986;2023-04-24T01:28:18;1.47;;;1.00;;
5587;SDS011;2816;49.778;9.986;2023-04-24T01:30:46;1.80;;;1.20;;
5587;SDS011;2816;49.778;9.986;2023-04-24T01:33:13;1.30;;;1.20;;
5587;SDS011;2816;49.778;9.986;2023-04-24T01:35:40;2.13;;;1.27;;
5587;SDS011;2816;49.778;9.986;2023-04-24T01:38:07;3.20;;;1.20;;
5587;SDS011;2816;49.778;9.986;2023-04-24T01:40:35;1.37;;;1.03;;
5587;SDS011;2816;49.778;9.986;2023-04-24T01:43:02;1.17;;;1.07;;
5587;SDS011;2816;49.778;9.986;2023-04-24T01:45:29;1.53;;;1.30;;
5587;SDS011;2816;49.778;9.986;2023-04-24T01:47:56;4.30;;;1.40;;
5587;SDS011;2816;49.778;9.986;2023-04-24T01:50:23;2.30;;;1.10;;
5587;SDS011;2816;49.778;9.986;2023-04-24T01:52:50;2.57;;;1.40;;
5587;SDS011;2816;49.778;9.986;2023-04-24T01:55:17;2.40;;;1.40;;
5587;SDS011;2816;49.778;9.986;2023-04-24T01:57:45;1.90;;;1.10;;
5587;SDS011;2816;49.778;9.986;2023-04-24T02:00:12;1.20;;;1.10;;
5587;SDS011;2816;49.778;9.986;2023-04-24T02:02:40;2.53;;;1.30;;
5587;SDS011;2816;49.778;9.986;2023-04-24T02:05:08;1.53;;;1.20;;
5587;SDS011;2816;49.778;9.986;2023-04-24T02:07:36;1.33;;;1.00;;
5587;SDS011;2816;49.778;9.986;2023-04-24T02:10:03;3.60;;;1.40;;
5587;SDS011;2816;49.778;9.986;2023-04-24T02:12:31;3.43;;;1.33;;
5587;SDS011;2816;49.778;9.986;2023-04-24T02:14:59;1.47;;;1.30;;
5587;SDS011;2816;49.778;9.986;2023-04-24T02:17:26;1.23;;;1.00;;
5587;SDS011;2816;49.778;9.986;2023-04-24T02:19:53;2.00;;;1.30;;
5587;SDS011;2816;49.778;9.986;2023-04-24T02:22:20;2.00;;;1.10;;
5587;SDS011;2816;49.778;9.986;2023-04-24T02:24:46;1.83;;;1.30;;
5587;SDS011;2816;49.778;9.986;2023-04-24T02:27:13;1.10;;;1.10;;
5587;SDS011;2816;49.778;9.986;2023-04-24T02:29:40;4.83;;;1.47;;
5587;SDS011;2816;49.778;9.986;2023-04-24T02:32:09;1.30;;;1.20;;
5587;SDS011;2816;49.778;9.986;2023-04-24T02:34:37;2.03;;;1.47;;
5587;SDS011;2816;49.778;9.986;2023-04-24T02:37:04;1.40;;;1.30;;
5587;SDS011;2816;49.778;9.986;2023-04-24T02:39:30;1.73;;;1.10;;
5587;SDS011;2816;49.778;9.986;2023-04-24T02:41:57;3.23;;;1.27;;
5587;SDS011;2816;49.778;9.986;2023-04-24T02:44:25;1.30;;;1.20;;
5587;SDS011;2816;49.778;9.986;2023-04-24T02:46:51;2.27;;;1.10;;
5587;SDS011;2816;49.778;9.986;2023-04-24T02:49:20;1.10;;;1.00;;
5587;SDS011;2816;49.778;9.986;2023-04-24T02:51:46;3.23;;;1.20;;
5587;SDS011;2816;49.778;9.986;2023-04-24T02:54:13;1.40;;;1.00;;
5587;SDS011;2816;49.778;9.986;2023-04-24T02:56:40;2.13;;;1.27;;
5587;SDS011;2816;49.778;9.986;2023-04-24T02:59:07;1.30;;;1.20;;
5587;SDS011;2816;49.778;9.986;2023-04-24T03:01:35;1.90;;;1.07;;
5587;SDS011;2816;49.778;9.986;2023-04-24T03:04:02;1.37;;;1.10;;
5587;SDS011;2816;49.778;9.986;2023-04-24T03:06:30;4.60;;;1.10;;
5587;SDS011;2816;49.778;9.986;2023-04-24T03:08:57;1.37;;;1.00;;
5587;SDS011;2816;49.778;9.986;2023-04-24T03:11:24;1.20;;;1.10;;
5587;SDS011;2816;49.778;9.986;2023-04-24T03:13:51;1.17;;;1.07;;
5587;SDS011;2816;49.778;9.986;2023-04-24T03:16:18;1.47;;;1.10;;
5587;SDS011;2816;49.778;9.986;2023-04-24T03:18:45;1.30;;;1.20;;
5587;SDS011;2816;49.778;9.986;2023-04-24T03:21:12;2.03;;;1.47;;
5587;SDS011;2816;49.778;9.986;2023-04-24T03:23:40;4.67;;;1.33;;
5587;SDS011;2816;49.778;9.986;2023-04-24T03:26:07;1.77;;;1.10;;
5587;SDS011;2816;49.778;9.986;2023-04-24T03:28:34;1.53;;;1.43;;
5587;SDS011;2816;49.778;9.986;2023-04-24T03:31:02;1.43;;;1.33;;
5587;SDS011;2816;49.778;9.986;2023-04-24T03:33:29;1.23;;;1.13;;
5587;SDS011;2816;49.778;9.986;2023-04-24T03:35:56;1.80;;;1.23;;
5587;SDS011;2816;49.778;9.986;2023-04-24T03:38:23;3.60;;;1.20;;
5587;SDS011;2816;49.778;9.986;2023-04-24T03:40:51;2.23;;;1.37;;
5587;SDS011;2816;49.778;9.986;2023-04-24T03:43:18;1.37;;;1.23;;
5587;SDS011;2816;49.778;9.986;2023-04-24T03:45:45;0.97;;;0.97;;
5587;SDS011;2816;49.778;9.986;2023-04-24T03:48:11;1.20;;;1.10;;
5587;SDS011;2816;49.778;9.986;2023-04-24T03:50:38;3.03;;;1.50;;
5587;SDS011;2816;49.778;9.986;2023-04-24T03:53:05;1.33;;;1.00;;
5587;SDS011;2816;49.778;9.986;2023-04-24T03:55:32;2.63;;;1.20;;
5587;SDS011;2816;49.778;9.986;2023-04-24T03:58:00;4.27;;;1.17;;
5587;SDS011;2816;49.778;9.986;2023-04-24T04:00:27;1.37;;;1.10;;
5587;SDS011;2816;49.778;9.986;2023-04-24T04:02:58;1.73;;;1.27;;
5587;SDS011;2816;49.778;9.986;2023-04-24T04:05:25;1.83;;;1.20;;
5587;SDS011;2816;49.778;9.986;2023-04-24T04:07:52;4.03;;;1.30;;
5587;SDS011;2816;49.778;9.986;2023-04-24T04:10:19;1.20;;;1.10;;
5587;SDS011;2816;49.778;9.986;2023-04-24T04:12:46;1.33;;;1.03;;
5587;SDS011;2816;49.778;9.986;2023-04-24T04:15:14;1.57;;;1.10;;
5587;SDS011;2816;49.778;9.986;2023-04-24T04:17:41;1.33;;;1.00;;
5587;SDS011;2816;49.778;9.986;2023-04-24T04:20:08;2.43;;;1.20;;
5587;SDS011;2816;49.778;9.986;2023-04-24T04:22:36;1.53;;;1.10;;
5587;SDS011;2816;49.778;9.986;2023-04-24T04:25:03;1.20;;;1.10;;
5587;SDS011;2816;49.778;9.986;2023-04-24T04:27:30;0.90;;;0.90;;
5587;SDS011;2816;49.778;9.986;2023-04-24T04:29:57;1.40;;;1.30;;
5587;SDS011;2816;49.778;9.986;2023-04-24T04:32:27;1.20;;;1.10;;
5587;SDS011;2816;49.778;9.986;2023-04-24T04:34:54;2.50;;;1.70;;
5587;SDS011;2816;49.778;9.986;2023-04-24T04:37:21;2.87;;;1.23;;
5587;SDS011;2816;49.778;9.986;2023-04-24T04:39:48;2.43;;;1.20;;
5587;SDS011;2816;49.778;9.986;2023-04-24T04:42:15;3.93;;;1.40;;
5587;SDS011;2816;49.778;9.986;2023-04-24T04:44:42;3.17;;;1.40;;
5587;SDS011;2816;49.778;9.986;2023-04-24T04:47:09;2.33;;;1.20;;
5587;SDS011;2816;49.778;9.986;2023-04-24T04:49:38;1.27;;;1.17;;
5587;SDS011;2816;49.778;9.986;2023-04-24T04:52:06;1.57;;;1.30;;
5587;SDS011;2816;49.778;9.986;2023-04-24T04:54:33;5.20;;;1.60;;
5587;SDS011;2816;49.778;9.986;2023-04-24T04:56:59;1.83;;;1.20;;
5587;SDS011;2816;49.778;9.986;2023-04-24T04:59:26;1.70;;;1.27;;
5587;SDS011;2816;49.778;9.986;2023-04-24T05:01:53;1.40;;;1.20;;
5587;SDS011;2816;49.778;9.986;2023-04-24T05:04:20;1.47;;;1.37;;
5587;SDS011;2816;49.778;9.986;2023-04-24T05:06:48;6.17;;;1.20;;
5587;SDS011;2816;49.778;9.986;2023-04-24T05:09:16;1.97;;;1.60;;
5587;SDS011;2816;49.778;9.986;2023-04-24T05:11:43;1.37;;;1.27;;
5587;SDS011;2816;49.778;9.986;2023-04-24T05:14:09;1.30;;;1.20;;
5587;SDS011;2816;49.778;9.986;2023-04-24T05:16:37;3.63;;;1.40;;
5587;SDS011;2816;49.778;9.986;2023-04-24T05:19:05;4.10;;;1.23;;
5587;SDS011;2816;49.778;9.986;2023-04-24T05:21:32;2.70;;;1.40;;
5587;SDS011;2816;49.778;9.986;2023-04-24T05:24:00;2.03;;;1.37;;
5587;SDS011;2816;49.778;9.986;2023-04-24T05:26:27;2.80;;;1.50;;
5587;SDS011;2816;49.778;9.986;2023-04-24T05:28:54;1.33;;;1.23;;
5587;SDS011;2816;49.778;9.986;2023-04-24T05:31:21;3.07;;;1.50;;
5587;SDS011;2816;49.778;9.986;2023-04-24T05:33:47;3.40;;;1.40;;
5587;SDS011;2816;49.778;9.986;2023-04-24T05:36:14;5.20;;;1.40;;
5587;SDS011;2816;49.778;9.986;2023-04-24T05:38:41;1.30;;;1.20;;
5587;SDS011;2816;49.778;9.986;2023-04-24T05:41:09;2.17;;;1.47;;
5587;SDS011;2816;49.778;9.986;2023-04-24T05:43:36;2.07;;;1.70;;
5587;SDS011;2816;49.778;9.986;2023-04-24T05:46:03;6.20;;;1.40;;
5587;SDS011;2816;49.778;9.986;2023-04-24T05:48:30;5.27;;;1.60;;
5587;SDS011;2816;49.778;9.986;2023-04-24T05:50:57;2.53;;;1.60;;
5587;SDS011;2816;49.778;9.986;2023-04-24T05:53:24;3.93;;;1.53;;
5587;SDS011;2816;49.778;9.986;2023-04-24T05:55:51;1.60;;;1.50;;
5587;SDS011;2816;49.778;9.986;2023-04-24T05:58:20;2.97;;;1.67;;
5587;SDS011;2816;49.778;9.986;2023-04-24T06:00:47;3.57;;;1.30;;
5587;SDS011;2816;49.778;9.986;2023-04-24T06:03:14;4.63;;;1.80;;
5587;SDS011;2816;49.778;9.986;2023-04-24T06:05:41;2.37;;;1.50;;
5587;SDS011;2816;49.778;9.986;2023-04-24T06:08:09;1.63;;;1.53;;
5587;SDS011;2816;49.778;9.986;2023-04-24T06:10:36;3.73;;;1.50;;
5587;SDS011;2816;49.778;9.986;2023-04-24T06:13:03;1.40;;;1.30;;
5587;SDS011;2816;49.778;9.986;2023-04-24T06:15:31;1.77;;;1.33;;
5587;SDS011;2816;49.778;9.986;2023-04-24T06:17:59;2.33;;;1.50;;
5587;SDS011;2816;49.778;9.986;2023-04-24T06:20:26;1.87;;;1.70;;
5587;SDS011;2816;49.778;9.986;2023-04-24T06:22:53;1.83;;;1.40;;
5587;SDS011;2816;49.778;9.986;2023-04-24T06:25:20;2.10;;;1.57;;
5587;SDS011;2816;49.778;9.986;2023-04-24T06:27:47;2.27;;;1.40;;
5587;SDS011;2816;49.778;9.986;2023-04-24T06:30:13;1.40;;;1.30;;
5587;SDS011;2816;49.778;9.986;2023-04-24T06:32:42;2.10;;;1.50;;
5587;SDS011;2816;49.778;9.986;2023-04-24T06:35:09;1.40;;;1.30;;
5587;SDS011;2816;49.778;9.986;2023-04-24T06:37:37;1.50;;;1.40;;
5587;SDS011;2816;49.778;9.986;2023-04-24T06:40:05;6.30;;;1.90;;
5587;SDS011;2816;49.778;9.986;2023-04-24T06:42:33;1.90;;;1.60;;
5587;SDS011;2816;49.778;9.986;2023-04-24T06:45:00;1.50;;;1.40;;
5587;SDS011;2816;49.778;9.986;2023-04-24T06:47:28;3.43;;;1.73;;
5587;SDS011;2816;49.778;9.986;2023-04-24T06:49:56;3.13;;;1.80;;
5587;SDS011;2816;49.778;9.986;2023-04-24T06:52:23;1.50;;;1.40;;
5587;SDS011;2816;49.778;9.986;2023-04-24T06:54:50;2.80;;;2.30;;
5587;SDS011;2816;49.778;9.986;2023-04-24T06:57:17;1.87;;;1.77;;
5587;SDS011;2816;49.778;9.986;2023-04-24T06:59:46;1.60;;;1.50;;
5587;SDS011;2816;49.778;9.986;2023-04-24T07:02:13;1.70;;;1.60;;
5587;SDS011;2816;49.778;9.986;2023-04-24T07:04:40;1.60;;;1.50;;
5587;SDS011;2816;49.778;9.986;2023-04-24T07:07:08;1.83;;;1.70;;
5587;SDS011;2816;49.778;9.986;2023-04-24T07:09:38;4.73;;;2.03;;
5587;SDS011;2816;49.778;9.986;2023-04-24T07:12:07;4.60;;;1.97;;
5587;SDS011;2816;49.778;9.986;2023-04-24T07:14:35;2.17;;;1.97;;
5587;SDS011;2816;49.778;9.986;2023-04-24T07:17:02;1.50;;;1.40;;
5587;SDS011;2816;49.778;9.986;2023-04-24T07:19:29;7.23;;;1.90;;
5587;SDS011;2816;49.778;9.986;2023-04-24T07:21:56;2.83;;;2.10;;
5587;SDS011;2816;49.778;9.986;2023-04-24T07:24:25;1.80;;;1.70;;
5587;SDS011;2816;49.778;9.986;2023-04-24T07:26:52;4.77;;;2.47;;
5587;SDS011;2816;49.778;9.986;2023-04-24T07:29:20;1.87;;;1.70;;
5587;SDS011;2816;49.778;9.986;2023-04-24T07:31:47;1.60;;;1.50;;
5587;SDS011;2816;49.778;9.986;2023-04-24T07:34:14;4.20;;;1.83;;
5587;SDS011;2816;49.778;9.986;2023-04-24T07:36:41;2.23;;;2.03;;
5587;SDS011;2816;49.778;9.986;2023-04-24T07:39:07;1.93;;;1.83;;
5587;SDS011;2816;49.778;9.986;2023-04-24T07:41:36;2.17;;;1.80;;
5587;SDS011;2816;49.778;9.986;2023-04-24T07:44:03;2.33;;;2.13;;
5587;SDS011;2816;49.778;9.986;2023-04-24T07:46:30;1.97;;;1.80;;
5587;SDS011;2816;49.778;9.986;2023-04-24T07:48:57;4.03;;;2.17;;
5587;SDS011;2816;49.778;9.986;2023-04-24T07:51:26;1.73;;;1.60;;
5587;SDS011;2816;49.778;9.986;2023-04-24T07:53:53;3.13;;;1.60;;
5587;SDS011;2816;49.778;9.986;2023-04-24T07:56:21;2.33;;;2.10;;
5587;SDS011;2816;49.778;9.986;2023-04-24T07:58:49;2.40;;;2.20;;
5587;SDS011;2816;49.778;9.986;2023-04-24T08:01:16;2.00;;;1.90;;
5587;SDS011;2816;49.778;9.986;2023-04-24T08:03:43;3.07;;;2.17;;
5587;SDS011;2816;49.778;9.986;2023-04-24T08:06:10;2.10;;;2.00;;
5587;SDS011;2816;49.778;9.986;2023-04-24T08:08:37;3.40;;;2.40;;
5587;SDS011;2816;49.778;9.986;2023-04-24T08:11:03;14.27;;;2.40;;
5587;SDS011;2816;49.778;9.986;2023-04-24T08:13:30;3.20;;;2.07;;
5587;SDS011;2816;49.778;9.986;2023-04-24T08:15:59;3.30;;;2.33;;
5587;SDS011;2816;49.778;9.986;2023-04-24T08:18:25;2.43;;;2.10;;
5587;SDS011;2816;49.778;9.986;2023-04-24T08:20:52;2.00;;;1.90;;
5587;SDS011;2816;49.778;9.986;2023-04-24T08:23:19;2.60;;;2.27;;
5587;SDS011;2816;49.778;9.986;2023-04-24T08:25:47;3.90;;;1.93;;
5587;SDS011;2816;49.778;9.986;2023-04-24T08:28:14;3.13;;;1.87;;
5587;SDS011;2816;49.778;9.986;2023-04-24T08:30:45;4.23;;;2.23;;
5587;SDS011;2816;49.778;9.986;2023-04-24T08:33:13;2.10;;;2.00;;
5587;SDS011;2816;49.778;9.986;2023-04-24T08:35:40;3.30;;;2.17;;
5587;SDS011;2816;49.778;9.986;2023-04-24T08:38:07;1.90;;;1.80;;
5587;SDS011;2816;49.778;9.986;2023-04-24T08:40:34;3.47;;;2.00;;
5587;SDS011;2816;49.778;9.986;2023-04-24T08:43:02;2.17;;;1.73;;
5587;SDS011;2816;49.778;9.986;2023-04-24T08:45:30;2.10;;;2.00;;
5587;SDS011;2816;49.778;9.986;2023-04-24T08:47:58;1.90;;;1.80;;
5587;SDS011;2816;49.778;9.986;2023-04-24T08:50:28;2.30;;;2.10;;
5587;SDS011;2816;49.778;9.986;2023-04-24T08:52:55;2.60;;;2.10;;
5587;SDS011;2816;49.778;9.986;2023-04-24T08:55:23;2.77;;;2.10;;
5587;SDS011;2816;49.778;9.986;2023-04-24T08:57:51;1.90;;;1.80;;
5587;SDS011;2816;49.778;9.986;2023-04-24T09:00:19;4.20;;;1.87;;
5587;SDS011;2816;49.778;9.986;2023-04-24T09:02:47;2.97;;;1.93;;
5587;SDS011;2816;49.778;9.986;2023-04-24T09:05:16;2.20;;;1.97;;
5587;SDS011;2816;49.778;9.986;2023-04-24T09:07:46;2.53;;;1.70;;
5587;SDS011;2816;49.778;9.986;2023-04-24T09:10:16;1.77;;;1.50;;
5587;SDS011;2816;49.778;9.986;2023-04-24T09:12:43;1.93;;;1.43;;
5587;SDS011;2816;49.778;9.986;2023-04-24T09:15:11;1.80;;;1.37;;
5587;SDS011;2816;49.778;9.986;2023-04-24T09:17:38;3.00;;;1.50;;
5587;SDS011;2816;49.778;9.986;2023-04-24T09:20:05;2.50;;;1.40;;
5587;SDS011;2816;49.778;9.986;2023-04-24T09:22:33;1.70;;;1.60;;
5587;SDS011;2816;49.778;9.986;2023-04-24T09:25:05;1.47;;;1.37;;
5587;SDS011;2816;49.778;9.986;2023-04-24T09:27:34;1.50;;;1.40;;
5587;SDS011;2816;49.778;9.986;2023-04-24T09:30:01;1.40;;;1.30;;
5587;SDS011;2816;49.778;9.986;2023-04-24T09:32:29;2.13;;;1.40;;
5587;SDS011;2816;49.778;9.986;2023-04-24T09:35:06;1.87;;;1.60;;
5587;SDS011;2816;49.778;9.986;2023-04-24T09:37:38;1.53;;;1.27;;
5587;SDS011;2816;49.778;9.986;2023-04-24T09:40:12;2.27;;;1.37;;
5587;SDS011;2816;49.778;9.986;2023-04-24T09:42:46;1.60;;;1.50;;
5587;SDS011;2816;49.778;9.986;2023-04-24T09:45:17;1.77;;;1.27;;
5587;SDS011;2816;49.778;9.986;2023-04-24T09:47:44;2.80;;;1.37;;
5587;SDS011;2816;49.778;9.986;2023-04-24T09:50:12;1.43;;;1.33;;
5587;SDS011;2816;49.778;9.986;2023-04-24T09:52:41;1.93;;;1.37;;
5587;SDS011;2816;49.778;9.986;2023-04-24T09:55:15;1.20;;;1.10;;
5587;SDS011;2816;49.778;9.986;2023-04-24T09:57:51;2.00;;;1.30;;
5587;SDS011;2816;49.778;9.986;2023-04-24T10:00:23;1.10;;;1.10;;
5587;SDS011;2816;49.778;9.986;2023-04-24T10:02:58;1.87;;;1.40;;
5587;SDS011;2816;49.778;9.986;2023-04-24T10:05:27;1.47;;;1.30;;
5587;SDS011;2816;49.778;9.986;2023-04-24T10:08:00;1.47;;;1.37;;
5587;SDS011;2816;49.778;9.986;2023-04-24T10:10:30;2.27;;;1.67;;
5587;SDS011;2816;49.778;9.986;2023-04-24T10:12:58;2.60;;;1.93;;
5587;SDS011;2816;49.778;9.986;2023-04-24T10:15:26;1.40;;;1.30;;
5587;SDS011;2816;49.778;9.986;2023-04-24T10:17:53;3.63;;;1.80;;
5587;SDS011;2816;49.778;9.986;2023-04-24T10:20:21;2.00;;;1.60;;
5587;SDS011;2816;49.778;9.986;2023-04-24T10:22:49;3.10;;;1.87;;
5587;SDS011;2816;49.778;9.986;2023-04-24T10:25:18;2.13;;;1.90;;
5587;SDS011;2816;49.778;9.986;2023-04-24T10:27:48;2.47;;;1.70;;
5587;SDS011;2816;49.778;9.986;2023-04-24T10:30:17;2.00;;;1.90;;
5587;SDS011;2816;49.778;9.986;2023-04-24T10:32:45;2.23;;;1.63;;
5587;SDS011;2816;49.778;9.986;2023-04-24T10:35:12;5.10;;;1.70;;
5587;SDS011;2816;49.778;9.986;2023-04-24T10:37:42;1.63;;;1.53;;
5587;SDS011;2816;49.778;9.986;2023-04-24T10:40:11;2.20;;;1.90;;
5587;SDS011;2816;49.778;9.986;2023-04-24T10:42:43;1.50;;;1.40;;
5587;SDS011;2816;49.778;9.986;2023-04-24T10:45:18;1.90;;;1.47;;
5587;SDS011;2816;49.778;9.986;2023-04-24T10:50:42;1.80;;;1.40;;
5587;SDS011;2816;49.778;9.986;2023-04-24T10:53:12;3.17;;;1.57;;
5587;SDS011;2816;49.778;9.986;2023-04-24T10:55:41;3.67;;;1.70;;
5587;SDS011;2816;49.778;9.986;2023-04-24T10:58:11;1.97;;;1.87;;
5587;SDS011;2816;49.778;9.986;2023-04-24T11:00:40;2.73;;;2.00;;
5587;SDS011;2816;49.778;9.986;2023-04-24T11:03:12;2.20;;;1.60;;
5587;SDS011;2816;49.778;9.986;2023-04-24T11:05:50;3.70;;;2.20;;
5587;SDS011;2816;49.778;9.986;2023-04-24T11:08:23;4.50;;;2.00;;
5587;SDS011;2816;49.778;9.986;2023-04-24T11:10:55;2.80;;;2.40;;
5587;SDS011;2816;49.778;9.986;2023-04-24T11:16:29;1.80;;;1.70;;
5587;SDS011;2816;49.778;9.986;2023-04-24T11:19:02;4.93;;;1.90;;
5587;SDS011;2816;49.778;9.986;2023-04-24T11:21:31;1.87;;;1.77;;
5587;SDS011;2816;49.778;9.986;2023-04-24T11:23:58;2.20;;;1.63;;
5587;SDS011;2816;49.778;9.986;2023-04-24T11:26:56;3.20;;;1.83;;
5587;SDS011;2816;49.778;9.986;2023-04-24T11:29:40;1.97;;;1.73;;
5587;SDS011;2816;49.778;9.986;2023-04-24T11:32:19;7.37;;;2.10;;
5587;SDS011;2816;49.778;9.986;2023-04-24T11:34:51;2.63;;;2.00;;
5587;SDS011;2816;49.778;9.986;2023-04-24T11:37:19;2.53;;;1.90;;
5587;SDS011;2816;49.778;9.986;2023-04-24T11:39:46;2.00;;;1.80;;
5587;SDS011;2816;49.778;9.986;2023-04-24T11:42:14;4.83;;;2.40;;
5587;SDS011;2816;49.778;9.986;2023-04-24T11:44:43;1.60;;;1.50;;
5587;SDS011;2816;49.778;9.986;2023-04-24T11:47:12;1.50;;;1.40;;
5587;SDS011;2816;49.778;9.986;2023-04-24T11:49:39;2.50;;;2.20;;
5587;SDS011;2816;49.778;9.986;2023-04-24T11:52:06;3.37;;;1.73;;
5587;SDS011;2816;49.778;9.986;2023-04-24T11:54:33;1.97;;;1.77;;
5587;SDS011;2816;49.778;9.986;2023-04-24T11:57:03;1.87;;;1.60;;
5587;SDS011;2816;49.778;9.986;2023-04-24T11:59:34;2.40;;;1.57;;
5587;SDS011;2816;49.778;9.986;2023-04-24T12:02:03;1.80;;;1.37;;
5587;SDS011;2816;49.778;9.986;2023-04-24T12:04:38;4.20;;;2.97;;
5587;SDS011;2816;49.778;9.986;2023-04-24T12:07:06;2.27;;;2.07;;
5587;SDS011;2816;49.778;9.986;2023-04-24T12:09:43;1.63;;;1.53;;
5587;SDS011;2816;49.778;9.986;2023-04-24T12:12:10;1.67;;;1.57;;
5587;SDS011;2816;49.778;9.986;2023-04-24T12:14:42;1.70;;;1.50;;
5587;SDS011;2816;49.778;9.986;2023-04-24T12:17:11;1.63;;;1.53;;
5587;SDS011;2816;49.778;9.986;2023-04-24T12:19:44;1.57;;;1.40;;
5587;SDS011;2816;49.778;9.986;2023-04-24T12:22:12;2.20;;;1.60;;
5587;SDS011;2816;49.778;9.986;2023-04-24T12:27:25;2.03;;;1.30;;
5587;SDS011;2816;49.778;9.986;2023-04-24T12:29:52;1.40;;;1.30;;
5587;SDS011;2816;49.778;9.986;2023-04-24T12:32:23;1.50;;;1.40;;
5587;SDS011;2816;49.778;9.986;2023-04-24T12:34:51;2.17;;;1.73;;
5587;SDS011;2816;49.778;9.986;2023-04-24T12:37:19;2.63;;;1.60;;
5587;SDS011;2816;49.778;9.986;2023-04-24T12:39:58;1.53;;;1.43;;
5587;SDS011;2816;49.778;9.986;2023-04-24T12:42:30;1.50;;;1.40;;
5587;SDS011;2816;49.778;9.986;2023-04-24T12:44:59;1.60;;;1.50;;
5587;SDS011;2816;49.778;9.986;2023-04-24T12:47:30;2.10;;;1.60;;
5587;SDS011;2816;49.778;9.986;2023-04-24T12:49:57;1.70;;;1.37;;
5587;SDS011;2816;49.778;9.986;2023-04-24T12:52:25;1.73;;;1.60;;
5587;SDS011;2816;49.778;9.986;2023-04-24T12:54:53;1.67;;;1.40;;
5587;SDS011;2816;49.778;9.986;2023-04-24T12:57:23;2.37;;;1.40;;
5587;SDS011;2816;49.778;9.986;2023-04-24T12:59:53;2.13;;;1.57;;
5587;SDS011;2816;49.778;9.986;2023-04-24T13:02:21;2.10;;;1.70;;
5587;SDS011;2816;49.778;9.986;2023-04-24T13:04:50;1.77;;;1.60;;
5587;SDS011;2816;49.778;9.986;2023-04-24T13:07:17;2.27;;;1.60;;
5587;SDS011;2816;49.778;9.986;2023-04-24T13:09:44;2.80;;;2.17;;
5587;SDS011;2816;49.778;9.986;2023-04-24T13:12:11;1.97;;;1.43;;
5587;SDS011;2816;49.778;9.986;2023-04-24T13:14:38;1.70;;;1.60;;
5587;SDS011;2816;49.778;9.986;2023-04-24T13:17:05;6.87;;;1.43;;
5587;SDS011;2816;49.778;9.986;2023-04-24T13:19:35;1.67;;;1.57;;
5587;SDS011;2816;49.778;9.986;2023-04-24T13:22:04;1.50;;;1.40;;
5587;SDS011;2816;49.778;9.986;2023-04-24T13:24:31;1.70;;;1.60;;
5587;SDS011;2816;49.778;9.986;2023-04-24T13:26:59;1.60;;;1.50;;
5587;SDS011;2816;49.778;9.986;2023-04-24T13:29:26;5.93;;;1.90;;
5587;SDS011;2816;49.778;9.986;2023-04-24T13:31:53;3.40;;;1.57;;
5587;SDS011;2816;49.778;9.986;2023-04-24T13:34:21;2.07;;;1.77;;
5587;SDS011;2816;49.778;9.986;2023-04-24T13:36:48;8.90;;;1.90;;
5587;SDS011;2816;49.778;9.986;2023-04-24T13:39:17;6.30;;;1.60;;
5587;SDS011;2816;49.778;9.986;2023-04-24T13:41:44;2.20;;;2.00;;
5587;SDS011;2816;49.778;9.986;2023-04-24T13:44:12;3.20;;;2.00;;
5587;SDS011;2816;49.778;9.986;2023-04-24T13:46:40;3.10;;;1.73;;
5587;SDS011;2816;49.778;9.986;2023-04-24T13:49:07;4.47;;;2.10;;
5587;SDS011;2816;49.778;9.986;2023-04-24T13:51:33;3.33;;;2.07;;
5587;SDS011;2816;49.778;9.986;2023-04-24T13:54:00;2.00;;;1.80;;
5587;SDS011;2816;49.778;9.986;2023-04-24T13:56:29;3.07;;;2.07;;
5587;SDS011;2816;49.778;9.986;2023-04-24T13:58:56;4.17;;;1.93;;
5587;SDS011;2816;49.778;9.986;2023-04-24T14:01:22;4.80;;;2.10;;
5587;SDS011;2816;49.778;9.986;2023-04-24T14:03:50;2.40;;;2.00;;
5587;SDS011;2816;49.778;9.986;2023-04-24T14:06:17;8.43;;;2.27;;
5587;SDS011;2816;49.778;9.986;2023-04-24T14:08:44;3.23;;;2.00;;
5587;SDS011;2816;49.778;9.986;2023-04-24T14:11:11;3.87;;;2.40;;
5587;SDS011;2816;49.778;9.986;2023-04-24T14:13:40;10.83;;;2.87;;
5587;SDS011;2816;49.778;9.986;2023-04-24T14:16:07;3.90;;;1.70;;
5587;SDS011;2816;49.778;9.986;2023-04-24T14:18:35;2.83;;;2.20;;
5587;SDS011;2816;49.778;9.986;2023-04-24T14:21:02;2.27;;;2.07;;
5587;SDS011;2816;49.778;9.986;2023-04-24T14:23:29;4.63;;;2.13;;
5587;SDS011;2816;49.778;9.986;2023-04-24T14:25:56;4.63;;;2.30;;
5587;SDS011;2816;49.778;9.986;2023-04-24T14:28:23;2.43;;;2.23;;
5587;SDS011;2816;49.778;9.986;2023-04-24T14:30:53;2.20;;;2.07;;
5587;SDS011;2816;49.778;9.986;2023-04-24T14:33:20;2.70;;;2.50;;
5587;SDS011;2816;49.778;9.986;2023-04-24T14:35:47;2.23;;;2.13;;
5587;SDS011;2816;49.778;9.986;2023-04-24T14:38:14;2.40;;;2.20;;
5587;SDS011;2816;49.778;9.986;2023-04-24T14:40:41;3.33;;;2.43;;
5587;SDS011;2816;49.778;9.986;2023-04-24T14:43:08;2.70;;;2.40;;
5587;SDS011;2816;49.778;9.986;2023-04-24T14:45:35;5.10;;;2.20;;
5587;SDS011;2816;49.778;9.986;2023-04-24T14:48:04;4.33;;;2.90;;
5587;SDS011;2816;49.778;9.986;2023-04-24T14:50:31;2.90;;;2.63;;
5587;SDS011;2816;49.778;9.986;2023-04-24T14:52:58;2.53;;;2.33;;
5587;SDS011;2816;49.778;9.986;2023-04-24T14:55:27;4.50;;;2.63;;
5587;SDS011;2816;49.778;9.986;2023-04-24T14:57:54;3.50;;;2.53;;
5587;SDS011;2816;49.778;9.986;2023-04-24T15:00:21;3.67;;;2.57;;
5587;SDS011;2816;49.778;9.986;2023-04-24T15:02:49;5.10;;;3.20;;
5587;SDS011;2816;49.778;9.986;2023-04-24T15:05:17;4.60;;;3.37;;
5587;SDS011;2816;49.778;9.986;2023-04-24T15:07:44;3.77;;;2.70;;
5587;SDS011;2816;49.778;9.986;2023-04-24T15:10:11;6.57;;;4.50;;
5587;SDS011;2816;49.778;9.986;2023-04-24T15:12:38;3.60;;;2.20;;
5587;SDS011;2816;49.778;9.986;2023-04-24T15:15:05;3.40;;;2.57;;
5587;SDS011;2816;49.778;9.986;2023-04-24T15:17:33;2.77;;;2.57;;
5587;SDS011;2816;49.778;9.986;2023-04-24T15:20:01;4.77;;;2.80;;
5587;SDS011;2816;49.778;9.986;2023-04-24T15:22:30;7.10;;;3.80;;
5587;SDS011;2816;49.778;9.986;2023-04-24T15:24:56;3.30;;;2.60;;
5587;SDS011;2816;49.778;9.986;2023-04-24T15:27:23;5.80;;;3.87;;
5587;SDS011;2816;49.778;9.986;2023-04-24T15:29:50;3.37;;;2.73;;